Du har inga inställningar för hoppväder.nu

Hoppväder.nu

Senast uppdaterat 07:46

UTC-tid

2018-07-23 kl. 05:46


Sol och måne

Solen går upp 4:29 och går ner 21:43 (beräknade cirkatider)
Nästa fullmåne blir om 4 dagar (2018-07-27)

METAR

ESOE (Örebro)
(26 minuter sedan)
ESOE 230520Z 23006KT 200V270 9999 SCT019 18/15 Q1010=



ESOK (Karlstad)
(26 minuter sedan)
ESOK 230520Z 22005KT 9999 OVC010 16/14 Q1009=



ESGR (Skövde)
(26 minuter sedan)
ESGR 230520Z AUTO 21008KT 9999 NCD 18/11 Q1010=



ESSD (Borlänge)
(26 minuter sedan)
ESSD 230520Z AUTO 20005KT 170V230 9999 NCD 16/15 Q1009=



ESOW (Västerås)
(26 minuter sedan)
ESOW 230520Z AUTO 23007KT 200V270 9999 OVC053/// 18/13 Q1010=



TAF

ESOE (Örebro)
(196 minuter sedan)
ESOE 230230Z 2303/2306 21005KT 9999 BKN020 PROB40 2303/2306 BKN014=



ESOK (Karlstad)
(16 minuter sedan)
ESOK 230530Z 2306/2314 23005KT 9999 BKN009 BECMG 2306/2308 CAVOK=



ESGR (Skövde)
ESGR



ESSD (Borlänge)
ESSD



ESOW (Västerås)
(16 minuter sedan)
ESOW 230530Z 2306/2315 23007KT CAVOK=





Kodnycklar till TAF och METAR






LHP

(Örebro är område G2a i Södra delen)

ÄNDRAD ÖVERSIKT FÖR OMRÅDE B UTFÄRDAD 230455
GÄLLANDE DEN 23 JULI 2018 MELLAN 04 OCH 12 UTC


Väderöversikt

En högtrycksrygg täcker södra Sverige

Sikt under 5 kilometer eller molnbas under 1000 fot
04-06UTC: I hela området
06-08UTC: Område Nordvästra delen och Södra delen


Måttlig eller svår isbildning
Väntas inte förekomma under perioden

Måttlig eller svår turbulens
Väntas inte förekomma under perioden



ÄNDRAD PROGNOS FÖR OMRÅDE B DEN SÖDRA DELEN UTFÄRDAD 230455
GÄLLANDE DEN 23 JULI 2018 MELLAN 04 OCH 12 UTC

Måttlig eller svår turbulens
04-12UTC: I hela området: Väntas inte förekomma under perioden

Måttlig eller svår isbildning
04-12UTC: I hela området: Väntas inte förekomma under perioden

Sikt/Väder/Moln
04-06UTC: Område G2a: Sikt <1.5km - >8km i dis, höga dimbankar. Molnbas <500ft - >2000ft.
Område G1a: Sikt >8km. Molnbas 500ft - >2000ft.

04-08UTC: Område G3b,G3c,G3d: Sikt >8km. Molnbas 500ft - >2000ft.

04-12UTC: Område G1b,G1c,G2b,G2c,G3a: Sikt >8km. Molnbas >2000ft.

06-08UTC: Område G2a: Sikt >8km. Molnbas 500ft - >2000ft.

06-12UTC: Område G1a: Sikt >8km. Molnbas >2000ft.

08-10UTC: Område G3d: Sikt >8km. Molnbas 1000ft - >2000ft.

08-12UTC: Område G2a,G3b,G3c: Sikt >8km. Molnbas >2000ft.

10-12UTC: Område G3d: Sikt >8km. Molnbas 1500ft - >2000ft.


Molnöversida
04-08UTC: Område G3a: Ingen prognos

04-10UTC: Område G2a,G3b: Molnöversida FL050.

04-12UTC: Område G3c,G3d: Molnöversida FL050.
Område G1a,G1b,G1c,G2b,G2c: Ingen prognos

08-10UTC: Område G3a: Molnöversida FL050.

10-12UTC: Område G2a,G3a,G3b: Ingen prognos


CB/TCU Moln
04-12UTC: I hela området: Väntas inte förekomma under perioden

Nollgradersisoterm
04-06UTC: Noll grader FL110 - > FL125.
06-12UTC: Noll grader FL115 - > FL125.

Vind vid marken
04-06UTC: Område G3a: SV/1-5 knop.
Område G1b: V/2-9 knop, byar upp till 14 knop.
Område G3d: SV-V/2-14 knop, byar upp till 22 knop.
Område G3c: SV-V/2-12 knop, byar upp till 21 knop.
Område G2a: SV/2-11 knop, byar upp till 15 knop.
Område G2c: SV/0-6 knop, byar upp till 11 knop.
Område G1c: V/3-9 knop, byar upp till 14 knop.
Område G2b: SV/1-8 knop, byar upp till 13 knop.
Område G3b: SV/1-8 knop, byar upp till 16 knop.
Område G1a: W-NV/1-9 knop, byar upp till 12 knop.

06-08UTC: Område G3b: SV-V/2-7 knop, byar upp till 14 knop.
Område G3c: SV-V/3-10 knop, byar upp till 18 knop.
Område G1c: SV-V/3-7 knop.
Område G1b: SV-V/3-8 knop, byar upp till 14 knop.
Område G2a: SV-V/2-8 knop, byar upp till 15 knop.
Område G2c: SV/2-6 knop.
Område G1a: SV-V/0-7 knop, byar upp till 13 knop.
Område G3a: SV/3-6 knop.
Område G2b: SV/3-8 knop, byar upp till 14 knop.
Område G3d: SV-V/3-10 knop, byar upp till 19 knop.

08-10UTC: Område G1a: S-SV/2-11 knop, byar upp till 20 knop.
Område G2a: SV/0-6 knop, byar upp till 15 knop.
Område G3b: SV/2-9 knop, byar upp till 16 knop.
Område G2c: SV/4-7 knop, byar upp till 17 knop.
Område G1c: S-SV/3-10 knop, byar upp till 17 knop.
Område G3c: SV-V/2-9 knop, byar upp till 17 knop.
Område G3d: SV-V/3-11 knop, byar upp till 18 knop.
Område G2b: SV/2-6 knop, byar upp till 15 knop.
Område G3a: SV/2-7 knop, byar upp till 17 knop.
Område G1b: S-SV/1-11 knop, byar upp till 19 knop.

10-12UTC: Område G3c: V/3-9 knop, byar upp till 19 knop.
Område G3a: SV-V/2-10 knop, byar upp till 23 knop.
Område G1c: S/2-17 knop, byar upp till 27 knop.
Område G2c: SV/2-6 knop, byar upp till 18 knop.
Område G1b: S/1-16 knop, byar upp till 24 knop.
Område G1a: S-SV/3-14 knop, byar upp till 24 knop.
Område G3b: SV-V/3-8 knop, byar upp till 18 knop.
Område G2a,G2b: SV/0-7 knop, byar upp till 17 knop.
Område G3d: SV-V/4-14 knop, byar upp till 21 knop.


Vind och temperatur
2000ft:
04-06UTC: 250/23kt +10.
06-08UTC: 240/16kt +10.
08-10UTC: 230/14kt +11.
10-12UTC: 240/16kt +12.

FL50:
04-06UTC: 250/17kt +7.
06-08UTC: 260/14kt +8.
08-10UTC: 260/16kt +9.
10-12UTC: 260/19kt +8.

FL100:
04-06UTC: 260/15kt +0.
06-08UTC: 270/14kt +0.
08-10UTC: 290/14kt +0.
10-12UTC: 290/13kt +0.

Lägsta QNH
1010 hPa, lägst i norr.

OBS! endast utbredd måttlig eller svår isbildning och turbulens prognostiseras i LLF.
Avsaknad av isbildning och turbulens i prognosen utesluter inte förekomst av lätt isbildning och turbulens.
För indikation på lätt isbildning, var vänlig kontrollera om prognosen för molntopp ligger högre än nollgradersisotermen.
Förekomst av TCU eller CB medför alltid en risk för måttlig eller svår isbildning och turbulens även om det inte framgår explicit av prognosen.





Spotting

Hur fungerar spotthjälpen och Vindkartan?

Markvind är ca 1-6 m/s med byar på 8 m/s.
Vind på 600 m ca 12 m/s.
Vind på 1500 m ca 9 m/s.
Vind på 3000 m ca 8 m/s.
FXB flyger ca 28 m/s över marken på finalen.
Du driver ca 347 m bakåt i frifall. (463 m)
Lämplig spot är 2 sekunder eller 57 m efter gropen.
(6 s eller 170 m)
För små grupper eller ensamhoppare bör man vänta 5-8 sekunder mellan grupperna.
För större grupper bör man vänta 11-13 sekunder mellan grupperna.


Vindkartan

Senast uppdaterad 07:46




All data kommer från LFV.se